Time;durP1;ratioP1;P1;durP2;ratioP2;P2;SDS_P1;SDS_P2;PMS_P1;PMS_P2;Temp;Humidity;BMP_temperature;BMP_pressure;BME280_temperature;BME280_humidity;BME280_pressure;Samples;Min_cycle;Max_cycle;Signal;HPM_P1;HPM_P2
2022/04/18 00:04:09;;;;;;;2.88;1.55;;;;;;;11.58;34.95;100674.78;10242250;28;20062;-65
2022/04/18 00:09:11;;;;;;;1.73;1.20;;;;;;;11.57;35.34;100667.75;10243129;28;20662;-61
2022/04/18 00:14:13;;;;;;;2.70;1.92;;;;;;;11.28;35.50;100625.56;10239606;28;20217;-62
2022/04/18 00:19:14;;;;;;;3.33;1.40;;;;;;;11.46;36.37;100656.09;10232607;28;20055;-63
2022/04/18 00:24:20;;;;;;;2.72;1.65;;;;;;;11.35;36.65;100642.78;10231536;28;20050;-63
2022/04/18 00:29:23;;;;;;;2.72;1.48;;;;;;;11.23;36.12;100633.91;10230920;28;20047;-62
2022/04/18 00:34:24;;;;;;;1.65;1.02;;;;;;;11.34;36.97;100650.88;10231091;28;20051;-63
2022/04/18 00:39:26;;;;;;;2.50;1.35;;;;;;;11.28;37.28;100650.38;10231985;28;20167;-62
2022/04/18 00:44:27;;;;;;;2.28;1.45;;;;;;;11.12;37.57;100633.88;10231737;28;20628;-65
2022/04/18 00:49:29;;;;;;;3.33;1.60;;;;;;;11.24;37.45;100643.56;10232362;28;20062;-63
2022/04/18 00:54:32;;;;;;;1.75;1.27;;;;;;;11.09;37.82;100632.31;10232461;28;20059;-62
2022/04/18 00:59:33;;;;;;;2.30;1.55;;;;;;;11.11;38.21;100621.53;10227850;28;20142;-61
2022/04/18 01:04:34;;;;;;;2.08;1.30;;;;;;;11.06;37.99;100605.03;10237100;28;20051;-62
2022/04/18 01:09:36;;;;;;;1.90;1.00;;;;;;;11.05;38.29;100624.63;10229335;28;20047;-63
2022/04/18 01:14:37;;;;;;;2.08;1.50;;;;;;;10.99;38.41;100620.66;10226914;28;20055;-62
2022/04/18 01:19:39;;;;;;;2.35;1.35;;;;;;;10.89;38.62;100604.50;10229705;28;20755;-63
2022/04/18 01:30:01;;;;;;;2.17;1.30;;;;;;;10.82;38.69;100608.59;10230322;28;20057;-62
2022/04/18 01:35:04;;;;;;;2.22;1.52;;;;;;;10.76;38.42;100609.06;10231438;28;20054;-63
2022/04/18 01:40:06;;;;;;;2.17;1.33;;;;;;;10.72;38.62;100602.28;10229049;28;20039;-63
2022/04/18 01:45:08;;;;;;;2.53;1.75;;;;;;;10.55;39.10;100579.59;10232777;28;20134;-62
2022/04/18 01:50:09;;;;;;;2.40;1.48;;;;;;;10.59;39.42;100597.03;10231907;28;20184;-64
2022/04/18 01:55:11;;;;;;;2.47;1.45;;;;;;;10.53;39.58;100592.19;10243371;28;20423;-63
2022/04/18 02:00:12;;;;;;;2.70;1.50;;;;;;;10.52;39.94;100586.00;10229101;28;20050;-63
2022/04/18 02:05:14;;;;;;;2.75;1.80;;;;;;;10.35;39.89;100573.94;10228246;28;20061;-64
2022/04/18 02:10:16;;;;;;;1.88;1.55;;;;;;;10.36;40.09;100580.16;10229634;28;20761;-63
2022/04/18 02:15:19;;;;;;;1.50;1.20;;;;;;;10.28;41.13;100572.66;10229858;28;20047;-62
2022/04/18 02:20:21;;;;;;;3.53;1.45;;;;;;;10.19;40.17;100555.59;10233300;28;20065;-64
2022/04/18 02:25:22;;;;;;;2.65;1.45;;;;;;;10.31;40.63;100576.94;10237426;28;20582;-63
2022/04/18 02:30:24;;;;;;;2.97;1.50;;;;;;;10.20;40.64;100567.09;10235883;28;20157;-64
2022/04/18 02:35:26;;;;;;;2.85;1.83;;;;;;;10.19;40.97;100563.59;10238668;28;20735;-63
2022/04/18 02:40:27;;;;;;;2.65;1.60;;;;;;;10.17;40.51;100559.34;10243345;28;20065;-63
2022/04/18 02:45:31;;;;;;;2.70;1.58;;;;;;;10.06;40.70;100554.81;10233275;28;20057;-62
2022/04/18 02:50:33;;;;;;;2.47;1.70;;;;;;;10.08;41.25;100555.53;10243935;28;20051;-62
2022/04/18 02:55:34;;;;;;;2.92;1.30;;;;;;;10.09;40.82;100549.25;10236561;28;20599;-66
2022/04/18 03:00:36;;;;;;;5.38;1.70;;;;;;;10.12;41.03;100549.03;10235806;28;20105;-63
2022/04/18 03:05:37;;;;;;;2.38;1.55;;;;;;;10.09;41.13;100543.94;10239795;28;20047;-62
2022/04/18 03:15:58;;;;;;;2.03;1.38;;;;;;;10.02;41.98;100537.38;10234905;28;20146;-62
2022/04/18 03:21:00;;;;;;;1.92;1.70;;;;;;;9.96;42.01;100537.81;10238630;28;20049;-62
2022/04/18 03:26:02;;;;;;;2.42;1.40;;;;;;;9.98;41.95;100536.72;10237147;28;20058;-62
2022/04/18 03:31:03;;;;;;;3.13;1.50;;;;;;;9.96;42.32;100543.16;10241794;28;20043;-63
2022/04/18 03:41:25;;;;;;;2.75;1.25;;;;;;;9.86;42.31;100524.34;10234994;28;20107;-63
2022/04/18 03:46:26;;;;;;;2.28;1.77;;;;;;;9.87;42.76;100526.03;10241161;28;20499;-62
2022/04/18 03:51:28;;;;;;;2.05;1.67;;;;;;;9.77;42.30;100519.69;10239002;28;20066;-62
2022/04/18 03:56:29;;;;;;;3.63;2.05;;;;;;;9.74;41.90;100510.13;10235984;28;20179;-62
2022/04/18 04:01:31;;;;;;;2.95;2.10;;;;;;;9.64;42.40;100519.75;10234190;28;20424;-62
2022/04/18 04:06:32;;;;;;;1.52;1.25;;;;;;;9.59;42.79;100516.56;10240711;28;20624;-62
2022/04/18 04:11:34;;;;;;;4.05;1.85;;;;;;;9.56;43.02;100520.28;10233699;28;20047;-63
2022/04/18 04:16:37;;;;;;;2.47;1.63;;;;;;;9.49;43.07;100511.91;10237406;28;20051;-63
2022/04/18 04:21:39;;;;;;;3.00;2.27;;;;;;;9.44;43.07;100514.03;10231586;28;20747;-63
2022/04/18 04:26:40;;;;;;;2.40;1.50;;;;;;;9.45;42.93;100526.38;10246374;28;20134;-63
2022/04/18 04:31:42;;;;;;;3.13;1.90;;;;;;;9.39;43.17;100521.50;10249054;28;20110;-63
2022/04/18 04:36:43;;;;;;;2.20;1.83;;;;;;;9.41;43.29;100511.59;10238490;28;20158;-62
2022/04/18 04:41:45;;;;;;;2.45;1.55;;;;;;;9.29;42.82;100515.13;10235004;28;20058;-64
2022/04/18 04:46:46;;;;;;;2.65;1.90;;;;;;;9.32;43.11;100514.91;10266765;28;20085;-62
2022/04/18 04:51:48;;;;;;;2.95;1.98;;;;;;;9.16;43.89;100497.41;10233842;28;20042;-63
2022/04/18 04:56:49;;;;;;;2.05;1.73;;;;;;;9.26;43.46;100512.69;10237438;28;20057;-64
2022/04/18 05:01:50;;;;;;;3.83;1.92;;;;;;;9.26;44.23;100515.34;10230238;28;20051;-64
2022/04/18 05:06:52;;;;;;;2.72;2.00;;;;;;;9.21;43.51;100507.72;10230814;28;20059;-63
2022/04/18 05:11:53;;;;;;;2.78;1.73;;;;;;;9.23;43.67;100499.63;10230329;28;20055;-63
2022/04/18 05:16:54;;;;;;;2.50;1.90;;;;;;;9.26;43.84;100494.09;10215391;28;20129;-62
2022/04/18 05:21:56;;;;;;;3.05;1.80;;;;;;;9.40;43.48;100512.59;10213562;28;21959;-63
2022/04/18 05:26:57;;;;;;;1.98;1.50;;;;;;;9.48;43.74;100530.63;10214505;28;20532;-63
2022/04/18 05:31:59;;;;;;;2.22;1.60;;;;;;;9.58;43.94;100525.50;10218210;28;20058;-63
2022/04/18 05:37:01;;;;;;;3.42;1.65;;;;;;;9.61;43.71;100525.25;10217028;28;20862;-62
2022/04/18 05:42:03;;;;;;;3.03;1.77;;;;;;;9.64;43.02;100525.91;10216487;28;20145;-63
2022/04/18 05:47:04;;;;;;;2.78;1.80;;;;;;;9.73;43.76;100527.06;10220211;28;20150;-62
2022/04/18 05:52:06;;;;;;;2.95;1.75;;;;;;;9.80;43.30;100525.63;10217687;28;20058;-63
2022/04/18 05:57:08;;;;;;;3.50;1.80;;;;;;;9.82;43.25;100513.09;10225953;28;20186;-61
2022/04/18 06:02:09;;;;;;;2.45;1.67;;;;;;;10.01;42.99;100525.91;10212452;28;20984;-62
2022/04/18 06:07:10;;;;;;;2.33;1.42;;;;;;;10.17;42.75;100522.94;10219313;28;20414;-64
2022/04/18 06:12:12;;;;;;;1.70;1.40;;;;;;;10.35;42.97;100525.22;10234039;28;20110;-62
2022/04/18 06:17:13;;;;;;;2.70;1.80;;;;;;;10.47;42.11;100528.78;10244742;28;20057;-63
2022/04/18 06:22:16;;;;;;;2.03;1.50;;;;;;;10.60;42.17;100518.88;10233697;28;20051;-62
2022/04/18 06:27:18;;;;;;;2.75;1.25;;;;;;;10.74;41.53;100517.81;10224240;28;20051;-62
2022/04/18 06:32:21;;;;;;;2.47;1.40;;;;;;;11.01;41.25;100537.97;10228856;28;20054;-62
2022/04/18 06:37:22;;;;;;;1.90;1.60;;;;;;;11.13;40.73;100526.34;10221685;28;20039;-62
2022/04/18 06:42:24;;;;;;;2.10;1.67;;;;;;;11.25;41.05;100520.03;10222591;28;20960;-63
2022/04/18 06:47:26;;;;;;;2.33;1.63;;;;;;;11.39;39.77;100512.75;10222949;28;20728;-62
2022/04/18 06:52:27;;;;;;;1.80;1.60;;;;;;;11.58;40.09;100528.97;10221286;28;20043;-63
2022/04/18 06:57:28;;;;;;;2.03;1.58;;;;;;;11.68;39.53;100521.94;10222909;28;20045;-61
2022/04/18 07:02:30;;;;;;;2.58;2.20;;;;;;;11.94;38.85;100521.66;10224893;28;20047;-63
2022/04/18 07:07:31;;;;;;;1.52;1.33;;;;;;;12.07;38.41;100513.50;10242289;28;20062;-62
2022/04/18 07:12:33;;;;;;;1.75;1.38;;;;;;;12.24;38.89;100516.59;10217956;28;20611;-63
2022/04/18 07:17:34;;;;;;;1.75;1.30;;;;;;;12.41;37.91;100517.84;10213976;28;20060;-64
2022/04/18 07:22:39;;;;;;;2.38;1.63;;;;;;;12.71;36.76;100525.91;10224114;28;20073;-65
2022/04/18 07:27:41;;;;;;;2.30;1.42;;;;;;;12.53;37.30;100519.47;10227549;28;20059;-63
2022/04/18 07:32:43;;;;;;;3.45;1.50;;;;;;;12.79;36.69;100535.09;10226449;28;20838;-63
2022/04/18 07:43:04;;;;;;;1.63;1.40;;;;;;;13.18;36.78;100524.63;10220308;28;20062;-64
2022/04/18 07:48:09;;;;;;;2.75;2.10;;;;;;;13.34;36.74;100516.97;10219042;28;20100;-63
2022/04/18 07:53:11;;;;;;;3.38;2.17;;;;;;;13.66;36.06;100520.47;10232713;28;20051;-66
2022/04/18 07:58:12;;;;;;;2.35;2.00;;;;;;;13.85;35.98;100531.19;10221361;28;20342;-65
2022/04/18 08:03:16;;;;;;;1.85;1.60;;;;;;;14.03;35.46;100527.88;10219866;28;20424;-65
2022/04/18 08:08:17;;;;;;;2.20;1.75;;;;;;;14.07;34.85;100530.13;10216477;28;20784;-64
2022/04/18 08:13:19;;;;;;;3.25;2.00;;;;;;;14.34;34.07;100536.63;10212612;28;20053;-64
2022/04/18 08:18:21;;;;;;;3.50;1.95;;;;;;;14.27;33.92;100522.94;10210356;28;20173;-65
2022/04/18 08:23:22;;;;;;;3.92;2.20;;;;;;;14.61;34.27;100524.38;10219036;28;20129;-63
2022/04/18 08:28:26;;;;;;;2.73;2.20;;;;;;;14.97;32.88;100527.25;10240819;28;20067;-63
2022/04/18 08:33:29;;;;;;;2.78;1.90;;;;;;;14.83;33.35;100510.66;10217793;28;20075;-65
2022/04/18 08:38:31;;;;;;;2.97;2.00;;;;;;;15.29;32.62;100509.91;10221444;28;20051;-65
2022/04/18 08:43:34;;;;;;;3.28;2.13;;;;;;;15.30;32.42;100516.97;10218127;28;20090;-64
2022/04/18 08:53:59;;;;;;;2.80;1.60;;;;;;;15.87;32.03;100509.63;10211128;28;20278;-64
2022/04/18 08:59:01;;;;;;;2.65;2.00;;;;;;;15.98;32.44;100499.66;10216845;28;20051;-63
2022/04/18 09:04:03;;;;;;;2.30;1.95;;;;;;;15.99;31.79;100501.34;10212521;28;20053;-62
2022/04/18 09:09:04;;;;;;;2.28;1.90;;;;;;;16.21;30.79;100482.09;10206458;28;20051;-65
2022/04/18 09:14:15;;;;;;;3.80;2.08;;;;;;;16.56;30.84;100487.56;10216824;28;20059;-64
2022/04/18 09:19:17;;;;;;;2.60;1.85;;;;;;;17.10;29.10;100479.38;10213523;28;20059;-64
2022/04/18 09:24:34;;;;;;;4.25;1.90;;;;;;;17.56;28.47;100489.78;10211916;28;20063;-63
2022/04/18 09:29:39;;;;;;;2.65;1.80;;;;;;;17.93;27.94;100481.31;10211299;28;20047;-63
2022/04/18 09:34:41;;;;;;;2.60;1.98;;;;;;;17.99;27.05;100474.44;10214251;28;20210;-65
2022/04/18 09:39:50;;;;;;;2.72;1.83;;;;;;;17.93;27.78;100470.56;10209273;28;20050;-63
2022/04/18 09:44:52;;;;;;;2.97;1.80;;;;;;;18.14;26.81;100459.28;10222540;28;20069;-63
2022/04/18 09:49:53;;;;;;;2.67;1.88;;;;;;;18.76;25.56;100451.66;10221744;28;20057;-63
2022/04/18 09:54:58;;;;;;;2.05;1.70;;;;;;;19.13;25.20;100448.38;10221982;28;20102;-62
2022/04/18 09:59:59;;;;;;;2.22;1.40;;;;;;;19.50;24.85;100440.59;10238551;28;20129;-62
2022/04/18 10:05:01;;;;;;;2.60;1.23;;;;;;;20.07;24.38;100439.38;10215071;28;20055;-68
2022/04/18 10:10:04;;;;;;;1.90;1.65;;;;;;;20.48;24.58;100434.47;10223990;28;20057;-65
2022/04/18 10:15:06;;;;;;;2.78;1.48;;;;;;;20.89;23.71;100429.69;10232862;28;20515;-62
2022/04/18 10:20:27;;;;;;;2.83;1.55;;;;;;;21.78;22.86;100421.38;10212623;28;20141;-66
2022/04/18 10:25:44;;;;;;;1.83;1.45;;;;;;;26.50;17.98;100419.38;10212244;28;20082;-62
2022/04/18 10:30:50;;;;;;;2.10;1.77;;;;;;;29.20;16.28;100386.69;10219159;28;20070;-62
2022/04/18 10:36:02;;;;;;;1.98;1.50;;;;;;;28.66;15.49;100391.56;10218041;28;20449;-63
2022/04/18 10:41:35;;;;;;;3.63;2.30;;;;;;;26.13;17.98;100385.72;10219564;28;20055;-63
2022/04/18 10:46:39;;;;;;;5.63;1.65;;;;;;;26.24;18.55;100382.25;10224054;28;20055;-63
2022/04/18 10:51:43;;;;;;;1.90;1.38;;;;;;;29.95;15.28;100365.59;10219823;28;20054;-63
2022/04/18 10:56:54;;;;;;;2.88;1.15;;;;;;;33.40;12.79;100355.03;10217151;28;20047;-63
2022/04/18 11:01:57;;;;;;;2.50;1.53;;;;;;;35.42;11.40;100360.94;10224376;28;20598;-63
2022/04/18 11:07:00;;;;;;;1.95;1.20;;;;;;;36.17;9.99;100354.25;10220761;28;20062;-63
2022/04/18 11:12:20;;;;;;;1.58;1.05;;;;;;;36.76;9.74;100353.06;10222127;28;20323;-63
2022/04/18 11:17:42;;;;;;;2.53;1.30;;;;;;;36.77;9.45;100348.34;10219521;28;20035;-62
2022/04/18 11:23:17;;;;;;;1.85;1.50;;;;;;;36.94;9.64;100337.56;10214176;28;20151;-63
2022/04/18 11:28:18;;;;;;;1.50;1.10;;;;;;;37.23;9.68;100331.03;10218095;28;20437;-64
2022/04/18 11:33:20;;;;;;;2.72;0.90;;;;;;;37.33;9.41;100314.25;10221599;28;20055;-63
2022/04/18 11:38:25;;;;;;;2.13;1.25;;;;;;;37.22;9.27;100315.53;10222103;28;20106;-63
2022/04/18 11:43:28;;;;;;;1.63;1.00;;;;;;;37.92;9.37;100310.25;10220327;28;20055;-64
2022/04/18 11:48:29;;;;;;;1.92;0.98;;;;;;;37.15;8.79;100306.75;10217305;28;21949;-63
2022/04/18 11:53:32;;;;;;;3.03;0.95;;;;;;;37.29;8.63;100298.53;10215884;28;20561;-63
2022/04/18 11:58:36;;;;;;;1.00;0.50;;;;;;;37.59;9.29;100274.97;10217296;28;20061;-63
2022/04/18 12:09:00;;;;;;;1.30;0.80;;;;;;;31.57;12.05;100271.16;10215150;28;20806;-63
2022/04/18 12:14:01;;;;;;;1.10;0.40;;;;;;;29.84;14.53;100265.00;10215251;28;20809;-64
2022/04/18 12:19:04;;;;;;;2.25;0.80;;;;;;;28.83;14.92;100244.59;10216410;28;20877;-63
2022/04/18 12:24:08;;;;;;;1.35;0.70;;;;;;;28.35;15.43;100254.00;10211097;28;20081;-63
2022/04/18 12:29:13;;;;;;;1.27;0.80;;;;;;;27.43;16.47;100248.06;10211214;28;20055;-63
2022/04/18 12:34:19;;;;;;;3.22;0.77;;;;;;;26.98;16.69;100237.59;10215812;28;20065;-65
2022/04/18 12:39:21;;;;;;;1.33;0.70;;;;;;;27.01;17.07;100239.84;10218055;28;20046;-64
2022/04/18 12:44:22;;;;;;;1.30;0.65;;;;;;;26.96;17.37;100237.84;10216403;28;20050;-64
2022/04/18 12:49:24;;;;;;;0.90;0.60;;;;;;;26.29;16.70;100216.00;10217136;28;20055;-64
2022/04/18 12:54:29;;;;;;;2.05;0.70;;;;;;;25.41;18.67;100216.00;10214238;28;20090;-63
2022/04/18 12:59:30;;;;;;;1.10;0.50;;;;;;;24.87;18.79;100209.25;10215292;28;20846;-64
2022/04/18 13:04:32;;;;;;;1.00;0.50;;;;;;;24.77;18.71;100198.00;10218316;28;20051;-63
2022/04/18 13:09:34;;;;;;;0.98;0.65;;;;;;;24.89;18.66;100198.97;10217176;28;20054;-64
2022/04/18 13:14:55;;;;;;;1.75;0.70;;;;;;;25.06;18.57;100191.94;10214615;28;20078;-63
2022/04/18 13:19:57;;;;;;;1.67;0.80;;;;;;;24.80;17.78;100179.38;10215314;28;20494;-60
2022/04/18 13:24:58;;;;;;;0.90;0.68;;;;;;;24.35;18.28;100180.19;10216475;28;20050;-62
2022/04/18 13:29:59;;;;;;;1.52;1.10;;;;;;;23.98;18.36;100173.63;10214910;28;20047;-62
2022/04/18 13:35:01;;;;;;;1.83;0.80;;;;;;;23.90;19.01;100155.69;10214093;28;20616;-65
2022/04/18 13:40:03;;;;;;;1.38;0.73;;;;;;;24.06;19.29;100158.97;10216813;28;20061;-62
2022/04/18 13:45:08;;;;;;;2.25;0.73;;;;;;;23.74;18.90;100145.25;10217602;28;20043;-64
2022/04/18 13:50:12;;;;;;;2.25;0.50;;;;;;;23.42;19.63;100126.06;10216489;28;20062;-63
2022/04/18 13:55:14;;;;;;;1.20;0.70;;;;;;;23.11;20.20;100130.28;10216449;28;20053;-63
2022/04/18 14:00:16;;;;;;;1.30;0.77;;;;;;;23.15;20.25;100136.97;10207454;28;20055;-63
2022/04/18 14:05:17;;;;;;;1.52;0.60;;;;;;;23.09;19.91;100137.78;10217176;28;20165;-63
2022/04/18 14:10:19;;;;;;;1.60;0.93;;;;;;;22.80;20.08;100128.97;10215987;28;20046;-63
2022/04/18 14:20:40;;;;;;;1.85;1.10;;;;;;;22.45;20.59;100109.31;10219726;28;20051;-64
2022/04/18 14:25:42;;;;;;;1.30;0.75;;;;;;;22.20;20.47;100107.97;10213519;28;20141;-67
2022/04/18 14:30:43;;;;;;;2.22;1.30;;;;;;;21.89;20.83;100106.56;10224807;28;20057;-62
2022/04/18 14:35:45;;;;;;;1.60;0.85;;;;;;;21.53;21.17;100104.09;10227253;28;20161;-64
2022/04/18 14:40:46;;;;;;;1.45;1.15;;;;;;;21.42;21.39;100105.44;10223579;28;20105;-62
2022/04/18 14:45:47;;;;;;;1.92;0.90;;;;;;;21.19;20.94;100101.13;10216852;28;20091;-62
2022/04/18 14:50:49;;;;;;;0.98;0.55;;;;;;;20.87;21.15;100096.28;10212363;28;20117;-66
2022/04/18 14:55:50;;;;;;;2.05;0.90;;;;;;;20.81;21.62;100093.31;10197643;28;20059;-63
2022/04/18 15:00:52;;;;;;;1.33;0.73;;;;;;;20.64;22.00;100075.66;10198496;28;20209;-61
2022/04/18 15:05:54;;;;;;;3.28;2.20;;;;;;;20.50;22.16;100080.09;10203713;28;20054;-64
2022/04/18 15:10:55;;;;;;;2.42;1.30;;;;;;;19.83;22.75;100078.50;10207372;28;20054;-63
2022/04/18 15:15:56;;;;;;;2.10;0.95;;;;;;;19.92;23.06;100071.97;10206619;28;21927;-63
2022/04/18 15:20:58;;;;;;;1.15;0.70;;;;;;;19.77;23.08;100062.03;10209957;28;20546;-62
2022/04/18 15:25:59;;;;;;;2.13;1.23;;;;;;;19.84;22.86;100058.59;10216474;28;20110;-62
2022/04/18 15:36:21;;;;;;;1.30;0.52;;;;;;;19.83;22.99;100057.75;10208665;28;20042;-62
2022/04/18 15:41:23;;;;;;;0.90;0.57;;;;;;;19.65;23.15;100041.91;10220377;28;20468;-62
2022/04/18 15:46:24;;;;;;;2.25;0.70;;;;;;;19.74;22.89;100054.28;10211286;28;20548;-62
2022/04/18 15:51:25;;;;;;;2.10;0.77;;;;;;;19.69;22.35;100051.31;10217916;28;20047;-62
2022/04/18 15:56:27;;;;;;;1.52;0.85;;;;;;;19.49;22.33;100023.22;10219923;28;20054;-64
2022/04/18 16:01:29;;;;;;;2.45;0.47;;;;;;;19.57;22.56;100045.53;10219551;28;20735;-62
2022/04/18 16:06:30;;;;;;;0.98;0.30;;;;;;;19.50;22.79;100046.47;10216852;28;20541;-61
2022/04/18 16:11:32;;;;;;;1.95;0.82;;;;;;;19.40;22.89;100039.50;10222413;28;20933;-63
2022/04/18 16:16:34;;;;;;;0.93;0.50;;;;;;;19.35;24.02;100038.38;10218190;28;20058;-63
2022/04/18 16:21:35;;;;;;;1.30;0.65;;;;;;;19.22;24.21;100033.66;10219641;28;20055;-63
2022/04/18 16:26:36;;;;;;;1.65;1.02;;;;;;;19.04;24.35;100013.25;10215994;28;20051;-64
2022/04/18 16:31:52;;;;;;;1.08;0.88;;;;;;;19.14;24.43;100022.94;10216127;28;20054;-63
2022/04/18 16:36:55;;;;;;;1.15;0.60;;;;;;;19.02;24.62;100007.22;10218900;28;20043;-63
2022/04/18 16:47:16;;;;;;;0.88;0.40;;;;;;;19.00;24.65;100011.94;10214192;28;20473;-63
2022/04/18 16:52:18;;;;;;;1.35;0.40;;;;;;;18.89;24.78;100012.41;10217139;28;20081;-61
2022/04/18 16:57:19;;;;;;;4.05;1.00;;;;;;;18.84;25.03;100009.38;10219627;28;20050;-62
2022/04/18 17:02:21;;;;;;;14.50;11.55;;;;;;;18.78;25.55;100010.09;10215439;28;20057;-64
2022/04/18 17:07:22;;;;;;;2.97;1.88;;;;;;;18.75;25.52;100005.09;10211680;28;20131;-66
2022/04/18 17:12:25;;;;;;;1.35;0.80;;;;;;;18.57;25.58;99991.94;10213930;28;20058;-62
2022/04/18 17:17:26;;;;;;;9.48;6.22;;;;;;;18.60;25.74;100007.75;10215756;28;20061;-65
2022/04/18 17:22:27;;;;;;;3.63;1.70;;;;;;;18.52;26.03;99997.88;10216583;28;20050;-65
2022/04/18 17:27:29;;;;;;;6.05;4.20;;;;;;;18.30;26.17;99981.56;10214115;28;21029;-66
2022/04/18 17:32:30;;;;;;;7.40;4.45;;;;;;;18.37;26.21;99998.69;10216334;28;20051;-64
2022/04/18 17:37:31;;;;;;;11.27;9.02;;;;;;;18.18;26.42;99989.22;10217793;28;20058;-62
2022/04/18 17:42:33;;;;;;;1.38;1.02;;;;;;;18.18;26.74;100001.88;10216281;28;20059;-63
2022/04/18 17:47:35;;;;;;;1.67;0.90;;;;;;;18.12;27.19;100003.41;10217768;28;20062;-63
2022/04/18 17:52:38;;;;;;;4.15;1.40;;;;;;;18.05;27.38;100002.44;10218132;28;20057;-63
2022/04/18 17:57:40;;;;;;;1.60;0.93;;;;;;;17.97;27.93;100007.88;10219048;28;20066;-63
2022/04/18 18:02:41;;;;;;;0.93;0.65;;;;;;;17.88;28.47;99998.13;10221928;28;20089;-62
2022/04/18 18:07:42;;;;;;;1.77;0.70;;;;;;;17.73;28.55;99995.34;10242996;28;20051;-63
2022/04/18 18:12:44;;;;;;;1.10;0.60;;;;;;;17.72;29.00;100012.53;10223138;28;20058;-64
2022/04/18 18:17:46;;;;;;;4.20;3.45;;;;;;;17.57;29.42;100010.59;10224494;28;20081;-63
2022/04/18 18:22:47;;;;;;;7.30;4.57;;;;;;;17.55;29.82;100009.94;10227386;28;20059;-63
2022/04/18 18:27:50;;;;;;;7.00;4.72;;;;;;;17.47;30.16;100008.13;10225371;28;20137;-65
2022/04/18 18:32:53;;;;;;;4.20;3.22;;;;;;;17.30;30.78;99993.88;10226975;28;20070;-64
2022/04/18 18:37:55;;;;;;;7.07;4.17;;;;;;;17.31;30.59;100002.78;10228996;28;20043;-66
2022/04/18 18:42:56;;;;;;;4.68;2.47;;;;;;;17.21;31.79;100005.66;10228160;28;20045;-66
2022/04/18 18:47:58;;;;;;;4.07;2.58;;;;;;;17.03;31.85;100010.44;10225910;28;20446;-65
2022/04/18 18:53:00;;;;;;;8.38;6.75;;;;;;;16.96;32.67;100011.13;10224720;28;20100;-65
2022/04/18 18:58:02;;;;;;;3.00;2.00;;;;;;;16.89;32.35;100017.31;10228278;28;20170;-63
2022/04/18 19:03:04;;;;;;;1.73;1.55;;;;;;;16.86;31.72;100018.50;10225989;28;20137;-64
2022/04/18 19:08:08;;;;;;;2.92;1.25;;;;;;;16.81;31.31;100023.53;10224729;28;20099;-65
2022/04/18 19:13:10;;;;;;;2.20;1.35;;;;;;;16.70;31.57;100019.34;10224214;28;20182;-66
2022/04/18 19:28:54;;;;;;;1.80;1.42;;;;;;;16.52;31.27;100026.75;10222242;28;20053;-65
2022/04/18 19:33:56;;;;;;;4.32;2.03;;;;;;;16.39;31.32;100019.16;10224551;28;20137;-65
2022/04/18 19:38:58;;;;;;;2.35;1.73;;;;;;;16.30;33.04;100025.56;10220431;28;20054;-65
2022/04/18 19:43:59;;;;;;;3.05;1.13;;;;;;;16.24;32.87;100009.09;10241485;28;20182;-64
2022/04/18 19:49:02;;;;;;;2.30;1.10;;;;;;;16.23;31.66;100020.84;10221371;28;20073;-64
2022/04/18 19:54:03;;;;;;;2.35;1.85;;;;;;;16.19;33.82;100016.81;10224644;28;20049;-67
2022/04/18 19:59:05;;;;;;;2.40;1.52;;;;;;;16.11;33.99;99998.00;10227520;28;20059;-66
2022/04/18 20:04:06;;;;;;;2.10;1.80;;;;;;;15.83;31.41;100000.13;10228539;28;20051;-66
2022/04/18 20:09:08;;;;;;;3.58;2.10;;;;;;;15.64;33.44;99990.47;10225094;28;20075;-65
2022/04/18 20:14:10;;;;;;;3.35;2.13;;;;;;;15.83;34.63;100009.03;10222543;28;20050;-66
2022/04/18 20:19:13;;;;;;;3.03;2.55;;;;;;;15.68;34.47;100006.09;10223994;28;20043;-64
2022/04/18 20:24:15;;;;;;;5.17;3.40;;;;;;;15.65;35.59;100017.16;10220287;28;20057;-65
2022/04/18 20:29:17;;;;;;;3.03;2.72;;;;;;;15.59;35.43;100017.81;10215764;28;20453;-65
2022/04/18 20:34:19;;;;;;;3.20;2.30;;;;;;;15.47;34.64;100029.81;10217350;28;20218;-64
2022/04/18 20:39:20;;;;;;;3.30;3.00;;;;;;;15.34;35.83;100024.88;10217414;28;20063;-63
2022/04/18 20:44:22;;;;;;;5.13;3.80;;;;;;;15.19;35.81;100017.47;10216937;28;20093;-63
2022/04/18 20:49:23;;;;;;;3.92;3.53;;;;;;;15.07;37.17;100012.50;10220814;28;20051;-64
2022/04/18 20:59:58;;;;;;;4.35;3.20;;;;;;;15.02;37.60;100018.34;10180921;28;20083;-65
2022/04/18 21:05:00;;;;;;;3.53;2.42;;;;;;;15.01;36.98;100014.84;10220742;28;20820;-65
2022/04/18 21:10:02;;;;;;;3.22;2.78;;;;;;;14.95;37.10;100014.63;10219461;28;20053;-65
2022/04/18 21:15:03;;;;;;;4.00;2.40;;;;;;;14.92;36.81;100023.84;10217758;28;20054;-65
2022/04/18 21:20:05;;;;;;;2.83;2.00;;;;;;;14.87;36.14;100009.22;10221796;28;20576;-64
2022/04/18 21:25:07;;;;;;;2.90;1.60;;;;;;;14.75;36.24;100006.78;10219743;28;20054;-65
2022/04/18 21:30:09;;;;;;;2.45;1.67;;;;;;;14.79;36.51;100010.00;10219162;28;20129;-67
2022/04/18 21:35:11;;;;;;;2.67;1.30;;;;;;;14.78;35.73;100014.50;10215171;28;20055;-63
2022/04/18 21:40:12;;;;;;;2.35;1.75;;;;;;;14.65;34.93;100003.34;10221244;28;20066;-65
2022/04/18 21:45:16;;;;;;;3.25;1.45;;;;;;;14.65;34.88;100008.72;10218703;28;20046;-64
2022/04/18 21:50:17;;;;;;;2.38;1.73;;;;;;;14.49;34.94;99999.53;10220272;28;20046;-65
2022/04/18 21:55:20;;;;;;;1.83;1.13;;;;;;;14.52;35.21;100008.25;10214936;28;20142;-65
2022/04/18 22:00:21;;;;;;;2.10;1.55;;;;;;;14.47;35.32;100012.25;10216681;28;20070;-63
2022/04/18 22:05:22;;;;;;;3.47;1.63;;;;;;;14.43;35.96;100005.50;10216546;28;20145;-64
2022/04/18 22:10:24;;;;;;;2.13;1.60;;;;;;;14.38;36.01;100012.31;10214909;28;20050;-67
2022/04/18 22:15:25;;;;;;;2.58;1.95;;;;;;;14.25;36.30;100005.53;10231336;28;20562;-67
2022/04/18 22:25:46;;;;;;;3.13;1.83;;;;;;;14.08;36.41;100001.88;10231854;28;20507;-66
2022/04/18 22:30:48;;;;;;;2.78;2.05;;;;;;;13.91;36.55;99962.53;10238494;28;20111;-66
2022/04/18 22:35:49;;;;;;;2.47;2.22;;;;;;;14.04;36.56;99999.66;10233935;28;20057;-67
2022/04/18 22:40:51;;;;;;;2.83;2.53;;;;;;;13.81;36.17;99983.16;10248118;28;20073;-65
2022/04/18 22:45:52;;;;;;;3.15;2.13;;;;;;;13.78;36.13;99993.19;10234480;28;20107;-66
2022/04/18 22:50:53;;;;;;;2.60;1.73;;;;;;;13.74;36.91;99997.16;10242138;28;20137;-67
2022/04/18 22:55:55;;;;;;;2.53;2.10;;;;;;;13.75;36.47;100004.19;10242286;28;20165;-65
2022/04/18 23:00:56;;;;;;;2.75;2.22;;;;;;;13.59;36.99;99985.28;10246550;28;20138;-65
2022/04/18 23:05:58;;;;;;;4.05;2.65;;;;;;;13.54;37.02;99976.84;10244947;28;20106;-66
2022/04/18 23:11:00;;;;;;;2.08;1.70;;;;;;;13.57;37.47;99992.59;10239326;28;20751;-67
2022/04/18 23:16:03;;;;;;;2.45;2.17;;;;;;;13.46;37.73;99979.44;10233659;28;20158;-66
2022/04/18 23:21:05;;;;;;;3.50;3.10;;;;;;;13.41;37.83;99978.06;10245748;28;20556;-65
2022/04/18 23:26:07;;;;;;;6.43;3.70;;;;;;;13.31;37.58;99976.41;10247634;28;20054;-64
2022/04/18 23:31:10;;;;;;;3.65;2.70;;;;;;;13.20;37.50;99964.91;10244928;28;20054;-64
2022/04/18 23:36:11;;;;;;;3.42;3.10;;;;;;;13.14;38.09;99967.34;10247944;28;20172;-65
2022/04/18 23:46:33;;;;;;;2.63;2.28;;;;;;;12.92;37.33;99945.31;10235573;28;20050;-65
2022/04/18 23:51:34;;;;;;;3.53;1.85;;;;;;;12.98;38.29;99950.06;10240355;28;20075;-65
2022/04/18 23:56:39;;;;;;;2.42;1.92;;;;;;;12.95;37.34;99947.69;10241237;28;20058;-67
